Time;durP1;ratioP1;P1;durP2;ratioP2;P2;SDS_P1;SDS_P2;PMS_P1;PMS_P2;Temp;Humidity;BMP_temperature;BMP_pressure;BME280_temperature;BME280_humidity;BME280_pressure;Samples;Min_cycle;Max_cycle;Signal;HPM_P1;HPM_P2
2022/07/22 00:00:54;;;;;;;;;26.75;25.50;;;;;24.57;77.85;101729.88;5024754;28;45334;-70
2022/07/22 00:03:19;;;;;;;;;26.25;24.25;;;;;24.60;77.17;101729.44;5021618;28;45404;-72
2022/07/22 00:05:45;;;;;;;;;28.75;24.25;;;;;24.52;77.33;101726.03;5025129;28;45817;-71
2022/07/22 00:08:10;;;;;;;;;26.00;24.25;;;;;24.55;77.04;101733.91;5021743;28;45544;-71
2022/07/22 00:10:35;;;;;;;;;25.50;25.50;;;;;24.52;78.09;101732.44;5019703;28;45367;-71
2022/07/22 00:13:01;;;;;;;;;31.25;27.50;;;;;24.51;78.97;101732.66;5023289;28;45761;-71
2022/07/22 00:15:26;;;;;;;;;27.00;24.00;;;;;24.43;76.87;101722.63;5025303;28;45662;-71
2022/07/22 00:17:52;;;;;;;;;25.00;25.00;;;;;24.29;78.85;101723.72;5020715;28;45458;-71
2022/07/22 00:20:19;;;;;;;;;23.50;20.75;;;;;24.22;78.56;101722.88;5019283;28;45472;-71
2022/07/22 00:22:44;;;;;;;;;24.00;19.50;;;;;24.26;78.50;101719.44;5021716;28;45406;-71
2022/07/22 00:25:09;;;;;;;;;23.25;22.25;;;;;24.31;78.98;101724.38;5016795;28;45442;-71
2022/07/22 00:27:35;;;;;;;;;23.25;20.75;;;;;24.17;79.37;101722.63;5019485;28;45370;-71
2022/07/22 00:30:00;;;;;;;;;19.25;17.25;;;;;24.04;79.74;101724.31;5035914;28;45484;-70
2022/07/22 00:32:26;;;;;;;;;26.50;22.75;;;;;23.94;80.24;101718.34;5019752;28;45335;-71
2022/07/22 00:34:51;;;;;;;;;24.00;22.00;;;;;23.98;78.74;101710.44;5015295;28;45327;-71
2022/07/22 00:37:16;;;;;;;;;18.50;16.50;;;;;23.93;80.38;101704.69;5018421;28;47311;-71
2022/07/22 00:39:42;;;;;;;;;25.50;24.00;;;;;23.94;80.62;101696.16;5011993;28;45489;-71
2022/07/22 00:42:07;;;;;;;;;26.00;21.00;;;;;24.01;80.18;101707.25;5021450;28;45510;-71
2022/07/22 00:44:32;;;;;;;;;25.50;24.00;;;;;23.90;80.30;101700.41;5023038;28;45550;-70
2022/07/22 00:46:58;;;;;;;;;19.50;19.00;;;;;23.85;80.00;101702.97;5013180;28;47365;-72
2022/07/22 00:49:23;;;;;;;;;18.75;18.75;;;;;23.86;80.61;101706.59;5020371;28;45320;-72
2022/07/22 00:51:49;;;;;;;;;25.00;23.25;;;;;23.87;80.82;101697.22;5015162;28;45926;-71
2022/07/22 00:54:14;;;;;;;;;21.25;21.00;;;;;23.84;79.79;101690.16;5017468;28;45550;-70
2022/07/22 00:56:40;;;;;;;;;18.00;18.00;;;;;23.83;79.08;101696.78;5024508;28;45446;-70
2022/07/22 00:59:08;;;;;;;;;18.25;18.25;;;;;23.79;79.91;101691.88;5016532;28;45356;-71
2022/07/22 01:01:34;;;;;;;;;21.75;18.25;;;;;23.71;79.64;101679.06;5021771;28;45394;-70
2022/07/22 01:03:59;;;;;;;;;21.00;20.50;;;;;23.69;79.62;101683.97;5019546;28;45369;-70
2022/07/22 01:06:25;;;;;;;;;19.25;18.00;;;;;23.76;80.52;101692.28;5023968;28;45357;-70
2022/07/22 01:08:50;;;;;;;;;20.50;17.75;;;;;23.65;79.38;101674.34;5014753;28;45495;-70
2022/07/22 01:11:18;;;;;;;;;16.75;15.75;;;;;23.55;80.21;101690.56;5023993;28;45425;-70
2022/07/22 01:13:45;;;;;;;;;19.00;17.25;;;;;23.58;80.52;101692.91;5017983;28;45414;-69
2022/07/22 01:16:12;;;;;;;;;18.00;16.00;;;;;23.45;79.58;101687.31;5023849;28;45343;-70
2022/07/22 01:18:38;;;;;;;;;21.25;17.50;;;;;23.44;81.02;101692.00;5018270;28;45431;-70
2022/07/22 01:21:06;;;;;;;;;15.25;14.00;;;;;23.39;80.33;101690.91;5023959;28;45413;-70
2022/07/22 01:23:32;;;;;;;;;16.00;15.50;;;;;23.39;81.71;101685.38;5015090;28;45624;-70
2022/07/22 01:25:57;;;;;;;;;18.00;17.75;;;;;23.34;81.74;101686.00;5023671;28;45294;-70
2022/07/22 01:28:23;;;;;;;;;17.75;16.00;;;;;23.26;82.52;101686.19;5015566;28;45161;-71
2022/07/22 01:30:49;;;;;;;;;21.00;16.00;;;;;23.28;82.43;101686.84;5021734;28;45416;-70
2022/07/22 01:33:16;;;;;;;;;18.50;15.75;;;;;23.30;81.27;101680.00;5015270;28;45544;-70
2022/07/22 01:35:42;;;;;;;;;19.75;18.75;;;;;23.28;81.73;101689.63;5018378;28;45496;-70
2022/07/22 01:38:07;;;;;;;;;18.00;16.75;;;;;23.19;81.04;101677.00;5032889;28;45440;-70
2022/07/22 01:40:32;;;;;;;;;20.00;17.75;;;;;23.33;80.27;101684.28;5013940;28;45378;-70
2022/07/22 01:42:58;;;;;;;;;18.75;18.75;;;;;23.26;81.30;101680.66;5016854;28;45358;-71
2022/07/22 01:45:23;;;;;;;;;19.00;16.75;;;;;23.25;80.99;101696.44;5015288;28;45615;-70
2022/07/22 01:47:48;;;;;;;;;19.25;18.25;;;;;23.17;81.84;101684.66;5019517;28;45520;-70
2022/07/22 01:50:14;;;;;;;;;15.25;15.25;;;;;23.26;81.32;101692.59;5015281;28;45389;-70
2022/07/22 01:52:39;;;;;;;;;13.25;12.75;;;;;23.19;81.70;101686.16;5016897;28;45264;-70
2022/07/22 01:55:07;;;;;;;;;17.00;16.25;;;;;23.13;82.21;101681.47;5013726;28;46313;-70
2022/07/22 01:57:32;;;;;;;;;25.00;18.00;;;;;23.21;81.58;101686.84;5014601;28;45448;-70
2022/07/22 01:59:58;;;;;;;;;15.75;15.25;;;;;23.21;81.72;101677.66;5020654;28;45480;-71
2022/07/22 02:02:23;;;;;;;;;21.50;14.50;;;;;23.29;80.51;101675.56;5020477;28;45315;-71
2022/07/22 02:04:48;;;;;;;;;22.50;19.75;;;;;23.28;80.98;101671.06;5024141;28;46928;-70
2022/07/22 02:07:14;;;;;;;;;13.00;11.67;;;;;23.28;80.82;101659.13;5035485;28;45255;-71
2022/07/22 02:09:39;;;;;;;;;18.00;18.00;;;;;23.29;79.60;101669.16;5016070;28;45792;-70
2022/07/22 02:12:05;;;;;;;;;22.25;18.75;;;;;23.26;79.58;101667.63;5022111;28;45576;-70
2022/07/22 02:14:30;;;;;;;;;17.00;16.50;;;;;23.24;79.31;101672.53;5020919;28;46304;-70
2022/07/22 02:16:55;;;;;;;;;16.00;14.33;;;;;23.16;81.20;101681.03;5021829;28;45161;-71
2022/07/22 02:19:20;;;;;;;;;13.75;13.50;;;;;23.11;80.36;101678.03;5017596;28;45415;-70
2022/07/22 02:21:46;;;;;;;;;18.00;14.00;;;;;23.10;80.79;101676.31;5022856;28;45363;-70
2022/07/22 02:24:11;;;;;;;;;19.00;17.67;;;;;23.15;80.42;101682.13;5014431;28;46693;-70
2022/07/22 02:26:37;;;;;;;;;22.00;14.00;;;;;23.07;80.35;101681.44;5020482;28;45361;-70
2022/07/22 02:29:02;;;;;;;;;17.67;15.33;;;;;23.01;80.10;101662.88;5011266;28;45808;-70
2022/07/22 02:31:28;;;;;;;;;16.00;13.00;;;;;23.09;79.67;101674.63;5017547;28;45355;-70
2022/07/22 02:33:54;;;;;;;;;15.75;15.75;;;;;23.05;79.65;101673.34;5010036;28;45397;-70
2022/07/22 02:36:19;;;;;;;;;19.75;16.00;;;;;23.04;80.47;101685.47;5016152;28;45406;-70
2022/07/22 02:38:44;;;;;;;;;17.25;15.50;;;;;22.92;81.05;101673.28;5013404;28;45468;-70
2022/07/22 02:41:10;;;;;;;;;17.00;17.00;;;;;22.88;80.69;101677.53;5014098;28;45227;-70
2022/07/22 02:43:35;;;;;;;;;17.33;17.33;;;;;22.89;81.67;101680.09;5019438;28;46529;-70
2022/07/22 02:46:00;;;;;;;;;17.75;16.00;;;;;22.90;82.43;101686.50;5022402;28;45307;-70
2022/07/22 02:48:26;;;;;;;;;18.00;16.00;;;;;22.93;81.05;101686.09;5018557;28;45406;-70
2022/07/22 02:50:51;;;;;;;;;20.25;16.00;;;;;22.93;81.74;101675.00;5014632;28;45445;-70
2022/07/22 02:53:16;;;;;;;;;16.25;15.75;;;;;22.89;81.27;101680.09;5016783;28;45560;-70
2022/07/22 02:55:42;;;;;;;;;15.75;14.00;;;;;22.86;81.44;101671.34;5021072;28;45408;-71
2022/07/22 02:58:08;;;;;;;;;18.00;15.75;;;;;22.90;81.30;101680.94;5018212;28;45470;-70
2022/07/22 03:00:39;;;;;;;;;21.00;18.75;;;;;22.85;81.92;101678.81;5021667;28;45502;-70
2022/07/22 03:03:05;;;;;;;;;18.50;15.50;;;;;22.96;81.60;101669.03;5013444;28;47311;-71
2022/07/22 03:05:31;;;;;;;;;15.67;15.67;;;;;22.85;80.88;101664.09;5019938;28;45398;-70
2022/07/22 03:07:56;;;;;;;;;15.00;14.00;;;;;22.80;80.85;101675.78;5015639;28;45473;-70
2022/07/22 03:10:22;;;;;;;;;18.25;18.25;;;;;22.89;81.23;101669.00;5022380;28;45382;-70
2022/07/22 03:12:47;;;;;;;;;15.00;12.67;;;;;22.82;80.60;101658.97;5017560;28;48143;-70
2022/07/22 03:15:13;;;;;;;;;17.33;16.00;;;;;22.83;80.31;101668.97;5015636;28;45217;-70
2022/07/22 03:17:38;;;;;;;;;16.00;15.00;;;;;22.75;81.47;101655.31;5017499;28;45248;-69
2022/07/22 03:20:09;;;;;;;;;16.33;15.00;;;;;22.73;81.94;101657.38;5026087;28;45474;-70
2022/07/22 03:22:34;;;;;;;;;23.25;16.50;;;;;22.71;82.15;101659.53;5019511;28;45408;-70
2022/07/22 03:25:00;;;;;;;;;17.75;16.75;;;;;22.70;81.78;101653.13;5012696;28;45287;-70
2022/07/22 03:27:26;;;;;;;;;19.75;16.50;;;;;22.52;83.52;101655.56;5015519;28;45495;-70
2022/07/22 03:29:51;;;;;;;;;17.25;16.00;;;;;22.30;85.11;101649.28;5013693;28;45516;-70
2022/07/22 03:32:17;;;;;;;;;20.50;16.25;;;;;22.42;84.55;101650.44;5019976;28;45375;-69
2022/07/22 03:34:43;;;;;;;;;16.50;14.00;;;;;22.47;83.06;101652.56;5013937;28;45227;-69
2022/07/22 03:37:08;;;;;;;;;16.75;15.50;;;;;22.52;82.18;101650.03;5018517;28;45276;-70
2022/07/22 03:39:33;;;;;;;;;14.75;14.50;;;;;22.48;81.61;101646.84;5012510;28;45358;-70
2022/07/22 03:41:59;;;;;;;;;17.67;15.00;;;;;22.43;82.39;101659.56;5015493;28;46330;-70
2022/07/22 03:44:24;;;;;;;;;16.25;15.75;;;;;22.35;84.05;101657.84;5016169;28;45331;-70
2022/07/22 03:46:49;;;;;;;;;21.67;17.00;;;;;22.37;83.57;101669.56;5025172;28;45224;-70
2022/07/22 03:49:15;;;;;;;;;47.00;37.50;;;;;22.34;82.94;101663.59;5019977;28;45460;-70
2022/07/22 03:51:40;;;;;;;;;22.25;21.25;;;;;22.25;83.95;101653.72;5024835;28;45348;-70
2022/07/22 03:54:05;;;;;;;;;19.33;18.00;;;;;22.33;82.93;101662.72;5019636;28;45392;-70
2022/07/22 03:56:31;;;;;;;;;15.33;15.33;;;;;22.34;82.33;101656.13;5012891;28;45160;-70
2022/07/22 03:58:56;;;;;;;;;18.00;16.67;;;;;22.23;83.89;101662.22;5017778;28;45537;-70
2022/07/22 04:01:22;;;;;;;;;17.75;17.75;;;;;22.18;84.55;101655.59;5017404;28;46624;-70
2022/07/22 04:03:48;;;;;;;;;21.75;18.75;;;;;22.19;83.55;101660.06;5018443;28;45493;-70
2022/07/22 04:06:14;;;;;;;;;18.67;17.00;;;;;22.20;83.22;101656.25;5024494;28;45550;-70
2022/07/22 04:08:39;;;;;;;;;21.00;17.33;;;;;22.24;82.92;101654.78;5014485;28;45477;-71
2022/07/22 04:11:04;;;;;;;;;16.00;16.00;;;;;22.22;83.31;101659.66;5024209;28;46344;-68
2022/07/22 04:13:30;;;;;;;;;17.00;15.50;;;;;22.17;83.54;101651.97;5016135;28;45397;-71
2022/07/22 04:15:55;;;;;;;;;20.50;17.25;;;;;22.18;83.05;101653.69;5024065;28;45315;-70
2022/07/22 04:18:21;;;;;;;;;20.33;18.33;;;;;22.18;83.96;101650.91;5016775;28;45742;-69
2022/07/22 04:20:46;;;;;;;;;19.67;17.67;;;;;22.16;84.33;101653.00;5018390;28;45535;-70
2022/07/22 04:23:12;;;;;;;;;15.50;15.25;;;;;22.04;84.82;101649.97;5019879;28;45461;-70
2022/07/22 04:25:37;;;;;;;;;21.33;20.67;;;;;21.96;85.30;101641.81;5016691;28;45767;-70
2022/07/22 04:28:03;;;;;;;;;24.75;19.75;;;;;22.06;84.16;101641.47;5036314;28;45245;-70
2022/07/22 04:30:28;;;;;;;;;19.50;19.50;;;;;22.18;84.00;101647.28;5017489;28;46463;-70
2022/07/22 04:32:54;;;;;;;;;20.67;18.33;;;;;22.26;82.46;101639.69;5011294;28;45477;-70
2022/07/22 04:35:19;;;;;;;;;19.00;18.00;;;;;22.26;82.86;101639.69;5020040;28;45327;-70
2022/07/22 04:37:44;;;;;;;;;18.50;17.75;;;;;22.34;81.94;101642.28;5020152;28;45252;-70
2022/07/22 04:40:11;;;;;;;;;16.75;16.75;;;;;22.32;82.16;101644.41;5011226;28;46325;-70
2022/07/22 04:42:36;;;;;;;;;15.67;14.67;;;;;22.36;81.82;101642.91;5020643;28;45510;-70
2022/07/22 04:45:03;;;;;;;;;16.75;16.75;;;;;22.37;82.56;101646.53;5027611;28;45294;-71
2022/07/22 04:47:28;;;;;;;;;22.00;21.25;;;;;22.31;83.30;101647.38;5018388;28;45383;-70
2022/07/22 04:49:54;;;;;;;;;15.75;15.75;;;;;22.33;82.70;101639.72;5013906;28;46694;-71
2022/07/22 04:52:19;;;;;;;;;22.25;19.75;;;;;22.38;82.92;101638.03;5015455;28;47625;-70
2022/07/22 04:54:44;;;;;;;;;17.00;17.00;;;;;22.37;82.39;101644.63;5016489;28;45426;-69
2022/07/22 04:57:10;;;;;;;;;23.25;22.00;;;;;22.46;82.44;101642.56;5012992;28;45312;-69
2022/07/22 04:59:35;;;;;;;;;18.67;16.00;;;;;22.47;81.51;101635.97;5033215;28;47681;-69
2022/07/22 05:02:01;;;;;;;;;23.75;21.75;;;;;22.57;81.19;101635.59;5033680;28;45733;-69
2022/07/22 05:04:26;;;;;;;;;16.00;16.00;;;;;22.65;79.89;101621.53;5013181;28;45386;-70
2022/07/22 05:06:52;;;;;;;;;17.75;16.75;;;;;22.62;79.58;101627.50;5022916;28;45607;-70
2022/07/22 05:09:17;;;;;;;;;19.75;18.75;;;;;22.70;79.91;101624.56;5017730;28;45347;-71
2022/07/22 05:11:42;;;;;;;;;18.00;18.00;;;;;22.71;80.22;101634.59;5021928;28;45489;-71
2022/07/22 05:14:08;;;;;;;;;18.00;16.25;;;;;22.72;80.33;101628.00;5015511;28;45304;-72
2022/07/22 05:16:37;;;;;;;;;23.00;21.75;;;;;22.50;81.67;101630.84;5028566;28;45484;-70
2022/07/22 05:19:02;;;;;;;;;21.50;19.50;;;;;22.42;81.44;101631.06;5012857;28;45335;-71
2022/07/22 05:21:28;;;;;;;;;21.25;17.75;;;;;22.56;80.91;101611.72;5018485;28;45479;-70
2022/07/22 05:23:53;;;;;;;;;20.75;20.75;;;;;22.91;80.13;101632.78;5012719;28;45451;-70
2022/07/22 05:26:19;;;;;;;;;24.50;21.25;;;;;23.07;78.16;101626.88;5021015;28;45316;-70
2022/07/22 05:28:44;;;;;;;;;99.33;85.33;;;;;23.10;77.74;101631.97;5030306;28;47134;-69
2022/07/22 05:31:10;;;;;;;;;42.00;35.25;;;;;23.46;76.20;101620.50;5020973;28;45263;-70
2022/07/22 05:33:35;;;;;;;;;47.75;35.50;;;;;24.11;74.14;101612.44;5016519;28;45456;-70
2022/07/22 05:36:00;;;;;;;;;36.75;30.00;;;;;24.49;70.02;101610.63;5022472;28;45601;-71
2022/07/22 05:38:26;;;;;;;;;24.75;21.25;;;;;24.38;70.32;101619.66;5013814;28;45455;-71
2022/07/22 05:40:51;;;;;;;;;29.00;25.00;;;;;24.11;70.87;101612.44;5016538;28;45371;-70
2022/07/22 05:43:17;;;;;;;;;13.25;13.25;;;;;23.61;73.91;101607.34;5018811;28;45522;-72
2022/07/22 05:45:42;;;;;;;;;83.50;62.50;;;;;23.82;72.77;101619.28;5021094;28;45401;-69
2022/07/22 05:48:07;;;;;;;;;76.25;53.00;;;;;24.07;71.88;101623.09;5017822;28;46177;-71
2022/07/22 05:50:33;;;;;;;;;93.00;63.50;;;;;24.17;71.54;101617.13;5019388;28;45495;-71
2022/07/22 05:52:58;;;;;;;;;65.25;43.00;;;;;24.10;71.03;101610.72;5016718;28;45520;-70
2022/07/22 05:55:23;;;;;;;;;53.50;37.50;;;;;23.92;72.23;101614.16;5018107;28;45306;-72
2022/07/22 05:57:49;;;;;;;;;47.75;36.25;;;;;23.97;71.67;101617.13;5019170;28;45644;-71
2022/07/22 06:00:15;;;;;;;;;76.50;55.50;;;;;23.94;71.84;101623.97;5021412;28;45236;-73
2022/07/22 06:02:40;;;;;;;;;55.50;39.00;;;;;23.76;73.19;101614.59;5018008;28;45317;-71
2022/07/22 06:05:06;;;;;;;;;56.50;40.50;;;;;23.76;74.31;101604.34;5025973;28;45246;-72
2022/07/22 06:07:31;;;;;;;;;56.75;37.00;;;;;23.94;73.57;101612.03;5018058;28;45614;-72
2022/07/22 06:09:57;;;;;;;;;51.75;37.50;;;;;24.05;72.11;101597.47;5015531;28;45276;-72
2022/07/22 06:12:22;;;;;;;;;29.00;24.00;;;;;23.87;72.53;101587.06;5018695;28;45170;-73
2022/07/22 06:14:47;;;;;;;;;31.50;23.50;;;;;23.81;73.18;101601.78;5027237;28;45567;-73
2022/07/22 06:17:13;;;;;;;;;25.25;25.00;;;;;23.71;73.54;101600.50;5016293;28;45461;-72
2022/07/22 06:19:39;;;;;;;;;30.50;20.00;;;;;23.55;74.59;101622.06;5027845;28;45352;-72
2022/07/22 06:22:05;;;;;;;;;32.00;23.50;;;;;23.68;74.80;101621.19;5020304;28;45371;-72
2022/07/22 06:24:30;;;;;;;;;22.50;21.00;;;;;23.74;74.26;101620.38;5016011;28;45367;-72
2022/07/22 06:26:56;;;;;;;;;27.50;22.25;;;;;23.90;73.49;101606.03;5021181;28;46508;-72
2022/07/22 06:29:21;;;;;;;;;20.25;19.50;;;;;24.01;73.58;101608.16;5015314;28;45338;-71
2022/07/22 06:31:47;;;;;;;;;20.50;18.50;;;;;24.37;72.14;101604.06;5022088;28;45366;-72
2022/07/22 06:34:12;;;;;;;;;28.50;23.75;;;;;24.60;70.38;101607.19;5014841;28;45703;-72
2022/07/22 06:36:38;;;;;;;;;28.75;23.75;;;;;24.84;69.65;101602.78;5019862;28;45549;-70
2022/07/22 06:39:03;;;;;;;;;18.50;18.25;;;;;24.93;69.14;101608.97;5014793;28;45308;-70
2022/07/22 06:41:28;;;;;;;;;21.25;19.75;;;;;24.91;68.13;101597.25;5017514;28;45496;-70
2022/07/22 06:43:54;;;;;;;;;18.33;17.67;;;;;24.96;68.94;101601.06;5015671;28;45178;-71
2022/07/22 06:46:19;;;;;;;;;19.75;18.75;;;;;25.01;68.55;101605.94;5014096;28;45746;-71
2022/07/22 06:48:45;;;;;;;;;19.00;16.00;;;;;25.09;67.31;101600.13;5014288;28;45343;-70
2022/07/22 06:51:10;;;;;;;;;22.00;22.00;;;;;25.14;67.10;101605.84;5013420;28;45234;-70
2022/07/22 06:53:36;;;;;;;;;17.25;15.50;;;;;25.16;67.35;101614.84;5014743;28;45478;-73
2022/07/22 06:56:01;;;;;;;;;21.00;17.75;;;;;25.24;66.84;101622.06;5020594;28;45370;-71
2022/07/22 06:58:26;;;;;;;;;20.67;17.67;;;;;25.31;66.28;101626.50;5013625;28;45390;-71
2022/07/22 07:00:52;;;;;;;;;18.67;17.00;;;;;25.37;66.48;101620.03;5019098;28;45362;-71
2022/07/22 07:03:17;;;;;;;;;17.67;14.67;;;;;25.61;65.48;101623.09;5030015;28;45558;-71
2022/07/22 07:05:43;;;;;;;;;18.50;18.00;;;;;25.69;64.67;101626.47;5018526;28;46116;-72
2022/07/22 07:08:08;;;;;;;;;50.25;41.50;;;;;25.06;66.81;101622.78;5016394;28;45541;-70
2022/07/22 07:10:34;;;;;;;;;54.25;42.75;;;;;24.86;68.36;101630.34;5020782;28;45339;-71
2022/07/22 07:13:00;;;;;;;;;25.75;21.50;;;;;25.06;67.84;101623.66;5013828;28;45644;-71
2022/07/22 07:15:26;;;;;;;;;22.50;19.25;;;;;25.40;67.44;101607.63;5017740;28;46072;-70
2022/07/22 07:17:53;;;;;;;;;18.00;18.00;;;;;25.70;66.04;101613.41;5016323;28;45402;-70
2022/07/22 07:20:18;;;;;;;;;17.00;16.67;;;;;25.90;65.16;101597.38;5016064;28;45377;-71
2022/07/22 07:22:44;;;;;;;;;24.25;20.75;;;;;26.04;64.53;101604.50;5021771;28;45219;-70
2022/07/22 07:25:10;;;;;;;;;21.50;19.25;;;;;26.21;63.43;101593.63;5014012;28;46267;-71
2022/07/22 07:27:36;;;;;;;;;19.00;19.00;;;;;26.45;62.84;101587.13;5018978;28;45367;-70
2022/07/22 07:30:03;;;;;;;;;22.50;20.00;;;;;26.52;62.00;101595.44;5013307;28;45505;-70
2022/07/22 07:32:28;;;;;;;;;18.25;17.75;;;;;26.63;62.48;101595.50;5017322;28;45410;-70
2022/07/22 07:34:54;;;;;;;;;21.25;19.75;;;;;26.69;61.19;101588.13;5014677;28;45357;-71
2022/07/22 07:37:19;;;;;;;;;19.50;19.50;;;;;26.75;61.07;101584.41;5015124;28;45441;-71
2022/07/22 07:39:45;;;;;;;;;23.00;21.25;;;;;26.72;61.74;101582.97;5020685;28;45369;-71
2022/07/22 07:42:10;;;;;;;;;21.25;21.25;;;;;26.84;61.36;101594.16;5022324;28;45320;-71
2022/07/22 07:44:35;;;;;;;;;22.50;21.50;;;;;27.11;60.65;101598.28;5019236;28;46152;-71
2022/07/22 07:47:01;;;;;;;;;21.00;19.50;;;;;27.24;58.98;101611.22;5023385;28;45365;-70
2022/07/22 07:49:27;;;;;;;;;22.75;21.00;;;;;27.28;59.36;101606.84;5015998;28;45451;-70
2022/07/22 07:51:52;;;;;;;;;17.00;15.75;;;;;27.26;59.39;101608.16;5039575;28;45304;-71
2022/07/22 07:54:18;;;;;;;;;26.25;24.50;;;;;27.35;58.35;101601.16;5016217;28;46342;-70
2022/07/22 07:56:43;;;;;;;;;20.75;20.75;;;;;27.34;58.74;101607.81;5017453;28;45247;-70
2022/07/22 07:59:09;;;;;;;;;20.67;19.67;;;;;27.18;58.80;101614.09;5018456;28;45554;-70
2022/07/22 08:01:34;;;;;;;;;25.50;24.25;;;;;27.28;59.64;101615.22;5024657;28;45504;-70
2022/07/22 08:03:59;;;;;;;;;17.33;17.33;;;;;27.48;58.79;101603.75;5015988;28;46300;-70
2022/07/22 08:06:25;;;;;;;;;20.25;17.75;;;;;27.66;58.43;101609.28;5024031;28;45184;-69
2022/07/22 08:08:50;;;;;;;;;22.50;22.00;;;;;27.71;57.10;101597.38;5015284;28;45389;-70
2022/07/22 08:11:15;;;;;;;;;17.50;17.25;;;;;27.82;57.37;101596.56;5022646;28;45628;-70
2022/07/22 08:13:41;;;;;;;;;18.33;16.33;;;;;27.89;56.73;101600.06;5017262;28;45515;-70
2022/07/22 08:16:06;;;;;;;;;29.75;25.50;;;;;28.03;56.99;101603.47;5023887;28;45140;-70
2022/07/22 08:18:32;;;;;;;;;20.00;19.00;;;;;27.59;58.04;101589.00;5029978;28;45548;-71
2022/07/22 08:20:57;;;;;;;;;19.00;16.50;;;;;27.94;57.98;101594.59;5023499;28;45176;-71
2022/07/22 08:23:23;;;;;;;;;21.50;20.25;;;;;28.15;56.94;101579.19;5012465;28;47207;-70
2022/07/22 08:25:48;;;;;;;;;19.50;18.50;;;;;28.34;56.22;101593.88;5019633;28;45442;-70
2022/07/22 08:28:14;;;;;;;;;17.00;16.00;;;;;28.30;56.31;101590.72;5016453;28;45770;-69
2022/07/22 08:30:40;;;;;;;;;21.75;20.50;;;;;27.85;56.57;101582.94;5015923;28;45409;-70
2022/07/22 08:33:06;;;;;;;;;18.00;18.00;;;;;27.87;58.08;101575.19;5016460;28;45529;-69
2022/07/22 08:35:31;;;;;;;;;24.00;24.00;;;;;28.10;56.74;101576.25;5011717;28;45462;-70
2022/07/22 08:37:57;;;;;;;;;22.75;21.75;;;;;28.17;56.86;101577.88;5016947;28;45309;-70
2022/07/22 08:40:22;;;;;;;;;21.00;20.00;;;;;28.27;56.33;101585.63;5017281;28;45390;-70
2022/07/22 08:42:49;;;;;;;;;19.00;17.50;;;;;28.40;56.03;101588.16;5019507;28;46424;-70
2022/07/22 08:45:15;;;;;;;;;23.00;21.75;;;;;28.10;56.45;101582.69;5016283;28;45406;-71
2022/07/22 08:47:44;;;;;;;;;22.50;19.75;;;;;28.24;57.11;101586.13;5018166;28;45620;-71
2022/07/22 08:50:10;;;;;;;;;20.25;20.25;;;;;28.34;56.46;101577.97;5022106;28;45461;-71
2022/07/22 08:52:35;;;;;;;;;19.33;18.67;;;;;28.43;56.02;101565.28;5020774;28;46318;-70
2022/07/22 08:55:07;;;;;;;;;17.67;15.67;;;;;28.64;55.67;101563.75;5022473;28;45311;-69
2022/07/22 08:57:32;;;;;;;;;18.00;18.00;;;;;28.77;54.67;101545.91;5027397;28;45249;-69
2022/07/22 09:00:00;;;;;;;;;19.75;17.75;;;;;28.87;54.37;101537.69;5012422;28;45716;-70
2022/07/22 09:02:27;;;;;;;;;20.50;20.50;;;;;29.05;54.31;101534.69;5018750;28;46082;-71
2022/07/22 09:05:02;;;;;;;;;20.75;17.00;;;;;29.15;54.10;101520.88;5019557;28;45406;-71
2022/07/22 09:07:34;;;;;;;;;21.00;18.00;;;;;29.31;53.57;101494.84;5020304;28;45331;-69
2022/07/22 09:10:00;;;;;;;;;22.75;18.50;;;;;29.39;52.89;101476.81;5019786;28;45495;-71
2022/07/22 09:12:29;;;;;;;;;22.00;20.50;;;;;28.92;54.11;101474.31;5020665;28;45483;-70
2022/07/22 09:14:56;;;;;;;;;22.25;21.00;;;;;29.10;53.23;101467.63;5018390;28;45355;-70
2022/07/22 09:17:28;;;;;;;;;22.50;21.00;;;;;29.40;53.17;101493.34;5020984;28;45453;-70
2022/07/22 09:19:58;;;;;;;;;27.00;23.75;;;;;29.39;52.62;101502.84;5017553;28;45320;-70
2022/07/22 09:22:39;;;;;;;;;23.50;23.25;;;;;28.93;53.75;101520.75;5020059;28;45569;-70
2022/07/22 09:25:28;;;;;;;;;19.50;18.75;;;;;28.95;54.18;101537.28;5009625;28;45434;-69
2022/07/22 09:28:08;;;;;;;;;16.00;13.00;;;;;29.32;53.99;101552.53;5015464;28;45398;-70
2022/07/22 09:30:49;;;;;;;;;21.50;20.25;;;;;29.10;52.96;101554.34;5020548;28;45516;-70
2022/07/22 09:33:15;;;;;;;;;19.00;16.75;;;;;29.32;53.91;101558.13;5015010;28;47523;-69
2022/07/22 09:35:41;;;;;;;;;21.25;20.25;;;;;29.74;51.36;101557.72;5018804;28;45441;-70
2022/07/22 09:38:09;;;;;;;;;20.75;20.75;;;;;30.11;52.02;101555.25;5016039;28;45497;-69
2022/07/22 09:40:37;;;;;;;;;22.25;19.75;;;;;30.32;50.29;101559.19;5016834;28;45650;-70
2022/07/22 09:43:11;;;;;;;;;23.75;20.25;;;;;30.42;50.07;101551.75;5016384;28;45311;-70
2022/07/22 09:45:53;;;;;;;;;20.50;19.25;;;;;30.69;49.65;101540.59;5015029;28;45597;-70
2022/07/22 09:48:21;;;;;;;;;22.25;19.75;;;;;30.75;48.96;101527.50;5019642;28;45467;-71
2022/07/22 09:50:48;;;;;;;;;21.00;19.00;;;;;30.81;48.92;101527.28;5013080;28;45387;-70
2022/07/22 09:53:14;;;;;;;;;25.00;22.50;;;;;30.83;48.56;101535.47;5016625;28;46203;-71
2022/07/22 09:55:40;;;;;;;;;22.25;20.75;;;;;30.70;48.01;101542.31;5010968;28;45311;-69
2022/07/22 09:58:07;;;;;;;;;25.25;20.50;;;;;30.62;48.56;101545.56;5016087;28;45766;-71
2022/07/22 10:00:34;;;;;;;;;22.25;20.25;;;;;30.61;48.90;101548.66;5017737;28;45358;-70
2022/07/22 10:03:01;;;;;;;;;22.25;22.00;;;;;30.85;48.58;101555.66;5018789;28;45291;-70
2022/07/22 10:05:31;;;;;;;;;19.00;19.00;;;;;30.90;48.35;101536.91;5013945;28;45302;-70
2022/07/22 10:07:57;;;;;;;;;21.00;18.67;;;;;31.14;48.38;101550.66;5020718;28;45958;-70
2022/07/22 10:10:26;;;;;;;;;20.00;18.00;;;;;31.20;47.88;101541.16;5012482;28;45398;-70
2022/07/22 10:12:54;;;;;;;;;20.75;20.50;;;;;31.18;46.99;101546.22;5012212;28;47972;-70
2022/07/22 10:15:21;;;;;;;;;20.50;20.50;;;;;30.71;48.23;101538.38;5016699;28;45342;-70
2022/07/22 10:17:50;;;;;;;;;21.75;20.75;;;;;30.61;49.13;101543.06;5017743;28;45530;-70
2022/07/22 10:20:21;;;;;;;;;27.25;23.75;;;;;30.31;49.08;101537.88;5015266;28;45293;-70
2022/07/22 10:22:58;;;;;;;;;23.50;21.25;;;;;29.96;50.08;101536.25;5016959;28;46806;-70
2022/07/22 10:25:29;;;;;;;;;26.00;21.00;;;;;30.17;49.42;101532.63;5009885;28;45363;-70
2022/07/22 10:27:59;;;;;;;;;22.00;21.00;;;;;30.21;49.92;101520.91;5019092;28;45450;-71
2022/07/22 10:30:35;;;;;;;;;19.00;17.00;;;;;29.89;50.77;101523.50;5008212;28;45743;-71
2022/07/22 10:33:17;;;;;;;;;23.00;21.25;;;;;29.75;51.33;101512.66;5013836;28;45659;-71
2022/07/22 10:35:54;;;;;;;;;18.75;18.75;;;;;29.58;51.60;101523.06;5026514;28;45433;-71
2022/07/22 10:38:21;;;;;;;;;23.25;23.25;;;;;29.14;53.11;101499.59;5015320;28;45424;-71
2022/07/22 10:40:57;;;;;;;;;25.25;22.00;;;;;29.07;53.35;101510.13;5019486;28;45457;-71
2022/07/22 10:43:25;;;;;;;;;22.25;22.25;;;;;28.93;54.43;101508.72;5016838;28;45780;-70
2022/07/22 10:45:53;;;;;;;;;32.25;28.50;;;;;28.98;55.58;101511.63;5018840;28;45413;-70
2022/07/22 10:48:25;;;;;;;;;25.25;24.50;;;;;28.79;61.44;101496.97;5017315;28;45285;-70
2022/07/22 10:50:55;;;;;;;;;147.25;138.50;;;;;28.83;59.94;101470.22;5011912;28;45347;-70
2022/07/22 10:53:39;;;;;;;;;37.00;32.00;;;;;28.64;65.14;101455.56;5019211;28;46421;-70
2022/07/22 10:56:11;;;;;;;;;23.75;23.25;;;;;28.34;71.42;101415.88;5023537;28;45394;-71
2022/07/22 10:58:38;;;;;;;;;32.00;30.00;;;;;27.86;74.68;101414.28;5017973;28;45462;-70
2022/07/22 11:01:07;;;;;;;;;27.50;26.50;;;;;27.74;76.03;101405.09;5025751;28;45309;-71
2022/07/22 11:03:34;;;;;;;;;25.25;23.75;;;;;27.40;75.63;101403.13;5018803;28;45332;-70
2022/07/22 11:06:14;;;;;;;;;26.75;24.00;;;;;27.49;77.17;101390.53;5024801;28;45350;-70